Time;durP1;ratioP1;P1;durP2;ratioP2;P2;SDS_P1;SDS_P2;PMS_P1;PMS_P2;Temp;Humidity;BMP_temperature;BMP_pressure;BME280_temperature;BME280_humidity;BME280_pressure;Samples;Min_cycle;Max_cycle;Signal;HPM_P1;HPM_P2
2022/08/27 00:00:41;;;;;;;0.00;0.00;;;17.40;99.90;;;;;;4998446;28;20394;-80
2022/08/27 00:03:07;;;;;;;0.00;0.00;;;17.50;99.90;;;;;;5015870;28;20057;-80
2022/08/27 00:05:33;;;;;;;0.00;0.00;;;17.40;99.90;;;;;;5015038;28;20175;-81
2022/08/27 00:07:58;;;;;;;0.00;0.00;;;17.40;99.90;;;;;;5015255;28;20041;-79
2022/08/27 00:10:27;;;;;;;0.00;0.00;;;17.40;99.90;;;;;;5015588;28;20111;-80
2022/08/27 00:12:56;;;;;;;0.00;0.00;;;17.40;99.90;;;;;;5015889;28;20045;-80
2022/08/27 00:15:22;;;;;;;0.00;0.00;;;17.40;99.90;;;;;;4998836;28;20137;-80
2022/08/27 00:17:47;;;;;;;0.00;0.00;;;17.30;99.90;;;;;;5015349;28;20066;-80
2022/08/27 00:20:20;;;;;;;0.20;0.20;;;17.30;99.90;;;;;;4998825;28;20057;-80
2022/08/27 00:22:45;;;;;;;0.00;0.00;;;17.30;99.90;;;;;;4999009;28;20156;-80
2022/08/27 00:25:12;;;;;;;0.00;0.00;;;17.20;99.90;;;;;;4999150;28;20553;-80
2022/08/27 00:27:39;;;;;;;0.00;0.00;;;17.20;99.90;;;;;;5015177;28;20052;-80
2022/08/27 00:30:07;;;;;;;0.00;0.00;;;17.20;99.90;;;;;;5048766;28;20066;-81
2022/08/27 00:32:33;;;;;;;0.00;0.00;;;17.20;99.90;;;;;;5092995;28;20498;-80
2022/08/27 00:34:59;;;;;;;0.00;0.00;;;17.10;99.90;;;;;;5075994;28;20048;-80
2022/08/27 00:37:25;;;;;;;0.00;0.00;;;17.10;99.90;;;;;;5092660;28;20046;-80
2022/08/27 00:39:50;;;;;;;0.00;0.00;;;17.10;99.90;;;;;;5076239;28;20048;-80
2022/08/27 00:42:16;;;;;;;0.38;0.25;;;17.00;99.90;;;;;;5076056;28;20104;-80
2022/08/27 00:44:42;;;;;;;0.00;0.00;;;17.00;99.90;;;;;;5093059;28;20055;-80
2022/08/27 00:47:25;;;;;;;0.00;0.00;;;17.00;99.90;;;;;;5092628;28;20044;-80
2022/08/27 00:50:00;;;;;;;0.00;0.00;;;16.90;99.90;;;;;;5075731;28;20388;-80
2022/08/27 00:52:47;;;;;;;0.00;0.00;;;16.90;99.90;;;;;;5076109;28;20058;-80
2022/08/27 00:55:21;;;;;;;0.00;0.00;;;16.90;99.90;;;;;;5076371;28;20048;-80
2022/08/27 00:57:58;;;;;;;0.00;0.00;;;16.80;99.90;;;;;;5092495;28;20036;-80
2022/08/27 01:00:24;;;;;;;0.00;0.00;;;16.80;99.90;;;;;;5076038;28;20052;-80
2022/08/27 01:02:53;;;;;;;0.00;0.00;;;16.80;99.90;;;;;;5075714;28;20105;-80
2022/08/27 01:05:24;;;;;;;0.00;0.00;;;16.80;99.90;;;;;;5075628;28;20408;-80
2022/08/27 01:07:52;;;;;;;0.00;0.00;;;16.80;99.90;;;;;;5092392;28;20071;-81
2022/08/27 01:10:24;;;;;;;0.00;0.00;;;16.80;99.90;;;;;;5092548;28;20048;-80
2022/08/27 01:12:53;;;;;;;0.00;0.00;;;16.70;99.90;;;;;;5079204;28;20047;-80
2022/08/27 01:15:20;;;;;;;0.65;0.00;;;16.70;99.90;;;;;;5079115;28;20044;-80
2022/08/27 01:17:48;;;;;;;0.00;0.00;;;16.70;99.90;;;;;;5096418;28;20123;-80
2022/08/27 01:20:18;;;;;;;0.00;0.00;;;16.70;99.90;;;;;;5079190;28;20560;-80
2022/08/27 01:23:13;;;;;;;0.00;0.00;;;16.70;99.90;;;;;;5079391;28;20040;-80
2022/08/27 01:25:42;;;;;;;0.00;0.00;;;16.70;99.90;;;;;;5079352;28;20083;-80
2022/08/27 01:28:08;;;;;;;0.00;0.00;;;16.70;99.90;;;;;;5079232;28;20048;-80
2022/08/27 01:30:35;;;;;;;0.40;0.20;;;16.70;99.90;;;;;;5079446;28;20055;-80
2022/08/27 01:33:13;;;;;;;0.00;0.00;;;16.70;99.90;;;;;;5078879;28;20454;-80
2022/08/27 01:35:43;;;;;;;1.33;0.20;;;16.60;99.90;;;;;;5096346;28;20036;-80
2022/08/27 01:38:09;;;;;;;0.00;0.00;;;16.50;99.90;;;;;;5079752;28;20134;-81
2022/08/27 01:40:36;;;;;;;0.00;0.00;;;16.50;99.90;;;;;;5096210;28;20055;-80
2022/08/27 01:43:02;;;;;;;0.00;0.00;;;16.50;99.90;;;;;;5095904;28;20044;-80
2022/08/27 01:45:32;;;;;;;0.15;0.15;;;16.50;99.90;;;;;;5095864;28;20097;-80
2022/08/27 01:47:58;;;;;;;0.00;0.00;;;16.50;99.90;;;;;;5079125;28;20043;-80
2022/08/27 01:50:27;;;;;;;0.00;0.00;;;16.50;99.90;;;;;;5078470;28;20391;-80
2022/08/27 01:52:54;;;;;;;0.00;0.00;;;16.40;99.90;;;;;;5095424;28;20071;-81
2022/08/27 01:55:24;;;;;;;3.58;0.52;;;16.50;99.90;;;;;;5078533;28;20430;-80
2022/08/27 01:57:51;;;;;;;0.00;0.00;;;16.50;99.90;;;;;;5095310;28;20051;-80
2022/08/27 02:00:21;;;;;;;0.00;0.00;;;16.50;99.90;;;;;;5095140;28;20048;-80
2022/08/27 02:02:47;;;;;;;0.00;0.00;;;16.50;99.90;;;;;;5078524;28;20040;-80
2022/08/27 02:05:14;;;;;;;0.00;0.00;;;16.50;99.90;;;;;;5095874;28;20054;-80
2022/08/27 02:07:40;;;;;;;0.00;0.00;;;16.40;99.90;;;;;;5095061;28;20476;-80
2022/08/27 02:10:08;;;;;;;0.00;0.00;;;16.40;99.90;;;;;;5078421;28;20044;-80
2022/08/27 02:12:34;;;;;;;0.00;0.00;;;16.40;99.90;;;;;;5078306;28;20398;-80
2022/08/27 02:15:00;;;;;;;1.20;0.10;;;16.40;99.90;;;;;;5078381;28;20097;-80
2022/08/27 02:17:26;;;;;;;0.00;0.00;;;16.40;99.90;;;;;;5078235;28;20048;-80
2022/08/27 02:19:52;;;;;;;4.10;0.32;;;16.50;99.90;;;;;;5078522;28;20044;-80
2022/08/27 02:22:18;;;;;;;0.00;0.00;;;16.50;99.90;;;;;;5094822;28;20094;-80
2022/08/27 02:24:44;;;;;;;0.00;0.00;;;16.40;99.90;;;;;;5077626;28;20048;-80
2022/08/27 02:27:10;;;;;;;0.00;0.00;;;16.40;99.90;;;;;;5094903;28;20040;-80
2022/08/27 02:29:36;;;;;;;0.73;0.10;;;16.30;99.90;;;;;;5095007;28;20048;-80
2022/08/27 02:32:02;;;;;;;0.22;0.22;;;16.40;99.90;;;;;;5095132;28;20043;-80
2022/08/27 02:34:28;;;;;;;0.00;0.00;;;16.30;99.90;;;;;;5078086;28;20108;-80
2022/08/27 02:36:54;;;;;;;0.05;0.05;;;16.30;99.90;;;;;;5077833;28;20123;-81
2022/08/27 02:39:20;;;;;;;0.00;0.00;;;16.30;99.90;;;;;;5077580;28;20036;-81
2022/08/27 02:41:47;;;;;;;0.00;0.00;;;16.30;99.90;;;;;;5094600;28;20480;-81
2022/08/27 02:44:13;;;;;;;0.00;0.00;;;16.30;99.90;;;;;;5077912;28;20055;-81
2022/08/27 02:46:40;;;;;;;0.00;0.00;;;16.30;99.90;;;;;;5094425;28;20369;-81
2022/08/27 02:49:06;;;;;;;0.00;0.00;;;16.30;99.90;;;;;;5094499;28;20503;-80
2022/08/27 02:51:32;;;;;;;0.00;0.00;;;16.30;99.90;;;;;;5077075;28;20042;-80
2022/08/27 02:53:59;;;;;;;0.00;0.00;;;16.40;99.90;;;;;;5077663;28;20044;-80
2022/08/27 02:56:26;;;;;;;0.00;0.00;;;16.30;99.90;;;;;;5077660;28;20097;-80
2022/08/27 02:58:52;;;;;;;0.10;0.10;;;16.20;99.90;;;;;;5093722;28;20405;-81
2022/08/27 03:01:18;;;;;;;0.10;0.10;;;16.30;99.90;;;;;;5093787;28;20472;-80
2022/08/27 03:03:44;;;;;;;0.00;0.00;;;16.20;99.90;;;;;;5077197;28;20134;-81
2022/08/27 03:06:10;;;;;;;0.00;0.00;;;16.30;99.90;;;;;;5094258;28;20044;-81
2022/08/27 03:08:36;;;;;;;0.05;0.05;;;16.20;99.90;;;;;;5093826;28;20490;-81
2022/08/27 03:11:02;;;;;;;0.10;0.10;;;16.20;99.90;;;;;;5077200;28;20066;-81
2022/08/27 03:13:28;;;;;;;0.00;0.00;;;16.20;99.90;;;;;;5094040;28;20050;-81
2022/08/27 03:15:54;;;;;;;0.00;0.00;;;16.20;99.90;;;;;;5077414;28;20048;-81
2022/08/27 03:18:20;;;;;;;0.00;0.00;;;16.20;99.90;;;;;;5076201;28;20467;-81
2022/08/27 03:20:51;;;;;;;0.00;0.00;;;16.20;99.90;;;;;;5091932;28;20044;-81
2022/08/27 03:23:21;;;;;;;0.00;0.00;;;16.20;99.90;;;;;;5093105;28;20051;-81
2022/08/27 03:25:54;;;;;;;0.00;0.00;;;16.20;99.90;;;;;;5093819;28;20105;-81
2022/08/27 03:28:21;;;;;;;0.55;0.00;;;16.20;99.90;;;;;;5094256;28;20044;-81
2022/08/27 03:30:50;;;;;;;0.00;0.00;;;16.20;99.90;;;;;;5093619;28;20043;-81
2022/08/27 03:33:18;;;;;;;0.00;0.00;;;16.20;99.90;;;;;;5076732;28;20051;-81
2022/08/27 03:35:45;;;;;;;0.00;0.00;;;16.20;99.90;;;;;;5093485;28;20066;-81
2022/08/27 03:38:11;;;;;;;0.20;0.10;;;16.20;99.90;;;;;;5093571;28;20059;-81
2022/08/27 03:40:37;;;;;;;0.00;0.00;;;16.20;99.90;;;;;;5094274;28;20047;-81
2022/08/27 03:43:03;;;;;;;0.00;0.00;;;16.20;99.90;;;;;;5093195;28;20403;-81
2022/08/27 03:45:28;;;;;;;0.00;0.00;;;16.10;99.90;;;;;;5076343;28;20047;-81
2022/08/27 03:47:54;;;;;;;0.00;0.00;;;16.10;99.90;;;;;;5075960;28;20132;-81
2022/08/27 03:50:20;;;;;;;0.00;0.00;;;16.10;99.90;;;;;;5076658;28;20058;-81
2022/08/27 03:52:46;;;;;;;0.00;0.00;;;16.00;99.90;;;;;;5076418;28;20044;-81
2022/08/27 03:55:12;;;;;;;0.00;0.00;;;16.00;99.90;;;;;;5076448;28;20043;-81
2022/08/27 03:57:38;;;;;;;0.00;0.00;;;15.90;99.90;;;;;;5076574;28;20456;-81
2022/08/27 04:00:09;;;;;;;0.00;0.00;;;15.90;99.90;;;;;;5076661;28;20138;-81
2022/08/27 04:02:39;;;;;;;0.00;0.00;;;15.80;99.90;;;;;;5076723;28;20083;-81
2022/08/27 04:05:06;;;;;;;0.00;0.00;;;15.80;99.90;;;;;;5093009;28;20036;-81
2022/08/27 04:07:32;;;;;;;0.00;0.00;;;15.80;99.90;;;;;;5076044;28;20435;-81
2022/08/27 04:09:58;;;;;;;0.00;0.00;;;15.80;99.90;;;;;;5075971;28;20048;-81
2022/08/27 04:12:26;;;;;;;0.00;0.00;;;15.70;99.90;;;;;;5076039;28;20036;-81
2022/08/27 04:14:52;;;;;;;0.00;0.00;;;15.70;99.90;;;;;;5093091;28;20044;-81
2022/08/27 04:17:17;;;;;;;0.00;0.00;;;15.70;99.90;;;;;;5076274;28;20051;-81
2022/08/27 04:19:43;;;;;;;0.00;0.00;;;15.70;99.90;;;;;;5076209;28;20071;-81
2022/08/27 04:22:09;;;;;;;0.00;0.00;;;15.60;99.90;;;;;;5075842;28;20488;-81
2022/08/27 04:24:36;;;;;;;0.00;0.00;;;15.70;99.90;;;;;;5092835;28;20060;-81
2022/08/27 04:27:05;;;;;;;0.00;0.00;;;15.60;99.90;;;;;;5092668;28;20051;-81
2022/08/27 04:29:31;;;;;;;0.00;0.00;;;15.60;99.90;;;;;;5093308;28;20459;-81
2022/08/27 04:31:58;;;;;;;0.00;0.00;;;15.60;99.90;;;;;;5076229;28;20055;-80
2022/08/27 04:34:24;;;;;;;0.00;0.00;;;15.50;99.90;;;;;;5075572;28;20502;-80
2022/08/27 04:36:49;;;;;;;0.00;0.00;;;15.50;99.90;;;;;;5076222;28;20112;-81
2022/08/27 04:39:16;;;;;;;0.00;0.00;;;15.50;99.90;;;;;;5093136;28;20131;-81
2022/08/27 04:41:41;;;;;;;0.00;0.00;;;15.50;99.90;;;;;;5092903;28;20048;-81
2022/08/27 04:44:09;;;;;;;0.00;0.00;;;15.50;99.90;;;;;;5076266;28;20044;-81
2022/08/27 04:46:37;;;;;;;0.00;0.00;;;15.50;99.90;;;;;;5094594;28;20396;-81
2022/08/27 04:49:07;;;;;;;0.00;0.00;;;15.50;99.90;;;;;;5079719;28;20056;-81
2022/08/27 04:51:33;;;;;;;0.00;0.00;;;15.40;99.90;;;;;;5096744;28;20500;-81
2022/08/27 04:54:01;;;;;;;0.00;0.00;;;15.40;99.90;;;;;;5096823;28;20472;-81
2022/08/27 04:56:28;;;;;;;0.00;0.00;;;15.30;99.90;;;;;;5080073;28;20410;-82
2022/08/27 04:58:53;;;;;;;0.00;0.00;;;15.30;99.90;;;;;;5079277;28;20056;-81
2022/08/27 05:01:22;;;;;;;0.00;0.00;;;15.30;99.90;;;;;;5096833;28;20044;-81
2022/08/27 05:03:48;;;;;;;0.00;0.00;;;15.30;99.90;;;;;;5079209;28;20487;-80
2022/08/27 05:06:15;;;;;;;0.00;0.00;;;15.30;99.90;;;;;;5080382;28;20051;-81
2022/08/27 05:08:44;;;;;;;0.47;0.30;;;15.30;99.90;;;;;;5096416;28;20040;-81
2022/08/27 05:11:13;;;;;;;0.00;0.00;;;15.30;99.90;;;;;;5079592;28;20542;-81
2022/08/27 05:13:43;;;;;;;0.00;0.00;;;15.40;99.90;;;;;;5079670;28;20039;-80
2022/08/27 05:16:11;;;;;;;0.00;0.00;;;15.40;99.90;;;;;;5079582;28;20051;-80
2022/08/27 05:18:38;;;;;;;0.00;0.00;;;15.50;99.90;;;;;;5079423;28;20539;-81
2022/08/27 05:21:05;;;;;;;0.00;0.00;;;15.50;99.90;;;;;;5079806;28;20131;-80
2022/08/27 05:23:31;;;;;;;0.00;0.00;;;15.50;99.90;;;;;;5079312;28;20059;-81
2022/08/27 05:25:57;;;;;;;0.00;0.00;;;15.50;99.90;;;;;;5096691;28;20399;-81
2022/08/27 05:28:25;;;;;;;0.00;0.00;;;15.60;99.90;;;;;;5096236;28;20044;-81
2022/08/27 05:30:53;;;;;;;0.00;0.00;;;15.60;99.90;;;;;;5079868;28;20059;-81
2022/08/27 05:33:23;;;;;;;0.00;0.00;;;15.70;99.90;;;;;;5078930;28;20075;-81
2022/08/27 05:35:54;;;;;;;0.00;0.00;;;15.70;99.90;;;;;;5079131;28;20139;-81
2022/08/27 05:38:21;;;;;;;0.05;0.05;;;15.80;99.90;;;;;;5079022;28;20051;-81
2022/08/27 05:40:47;;;;;;;0.00;0.00;;;15.90;99.90;;;;;;5079193;28;20058;-81
2022/08/27 05:43:15;;;;;;;0.00;0.00;;;15.90;99.90;;;;;;5079015;28;20055;-81
2022/08/27 05:45:43;;;;;;;0.00;0.00;;;15.90;99.90;;;;;;5079438;28;20139;-81
2022/08/27 05:48:10;;;;;;;0.00;0.00;;;15.90;99.90;;;;;;5078704;28;20060;-81
2022/08/27 05:50:38;;;;;;;0.00;0.00;;;15.90;99.90;;;;;;5079181;28;20083;-81
2022/08/27 05:53:04;;;;;;;0.00;0.00;;;15.90;99.90;;;;;;5078999;28;20400;-81
2022/08/27 05:55:42;;;;;;;0.00;0.00;;;15.90;99.90;;;;;;5078829;28;20508;-81
2022/08/27 06:01:03;;;;;;;1.55;0.80;;;16.00;99.90;;;;;;5079182;28;20062;-81
2022/08/27 06:01:03;;;;;;;0.00;0.00;;;15.90;99.90;;;;;;5095575;28;20044;-81
2022/08/27 06:03:30;;;;;;;0.00;0.00;;;16.00;99.90;;;;;;5078627;28;20391;-81
2022/08/27 06:06:05;;;;;;;0.00;0.00;;;16.10;99.90;;;;;;5078792;28;20051;-81
2022/08/27 06:08:31;;;;;;;0.00;0.00;;;16.20;99.90;;;;;;5079111;28;20048;-82
2022/08/27 06:11:00;;;;;;;0.00;0.00;;;16.30;99.90;;;;;;5095337;28;20036;-82
2022/08/27 06:13:26;;;;;;;0.00;0.00;;;16.40;99.90;;;;;;5095299;28;20109;-82
2022/08/27 06:16:04;;;;;;;0.00;0.00;;;16.40;99.90;;;;;;5078523;28;20048;-82
2022/08/27 06:18:31;;;;;;;0.00;0.00;;;16.50;99.90;;;;;;5095286;28;20110;-82
2022/08/27 06:20:57;;;;;;;0.00;0.00;;;16.60;99.90;;;;;;5095369;28;20052;-82
2022/08/27 06:23:24;;;;;;;1.08;0.10;;;16.60;99.90;;;;;;5078158;28;20092;-82
2022/08/27 06:25:50;;;;;;;0.00;0.00;;;16.50;99.90;;;;;;5095003;28;20507;-82
2022/08/27 06:28:19;;;;;;;0.00;0.00;;;16.60;99.90;;;;;;5078360;28;20082;-82
2022/08/27 06:30:44;;;;;;;0.08;0.08;;;16.70;99.90;;;;;;5078073;28;20064;-82
2022/08/27 06:33:10;;;;;;;0.00;0.00;;;16.70;99.90;;;;;;5077808;28;20058;-81
2022/08/27 06:35:36;;;;;;;0.10;0.03;;;16.70;99.90;;;;;;5095460;28;20492;-82
2022/08/27 06:38:02;;;;;;;0.00;0.00;;;16.80;99.90;;;;;;5077835;28;20048;-82
2022/08/27 06:40:28;;;;;;;0.00;0.00;;;16.80;99.90;;;;;;5079065;28;20411;-82
2022/08/27 06:42:54;;;;;;;0.03;0.03;;;16.80;99.90;;;;;;5087205;28;20115;-81
2022/08/27 06:45:20;;;;;;;0.00;0.00;;;17.00;99.90;;;;;;5105386;28;20046;-81
2022/08/27 06:47:46;;;;;;;0.00;0.00;;;17.00;99.90;;;;;;5085744;28;20135;-82
2022/08/27 06:50:12;;;;;;;0.10;0.00;;;17.00;99.90;;;;;;5105976;28;20123;-83
2022/08/27 06:52:38;;;;;;;0.00;0.00;;;17.10;99.90;;;;;;5092258;28;20126;-82
2022/08/27 06:55:05;;;;;;;0.00;0.00;;;17.30;99.90;;;;;;5114839;28;20562;-82
2022/08/27 06:57:30;;;;;;;0.00;0.00;;;17.60;99.90;;;;;;5114694;28;20047;-82
2022/08/27 06:59:56;;;;;;;0.00;0.00;;;18.30;99.90;;;;;;5115115;28;20376;-82
2022/08/27 07:02:22;;;;;;;0.00;0.00;;;19.30;99.90;;;;;;5097630;28;20475;-82
2022/08/27 07:04:49;;;;;;;0.55;0.32;;;20.10;99.90;;;;;;5115555;28;20039;-81
2022/08/27 07:07:14;;;;;;;0.00;0.00;;;20.60;99.90;;;;;;5097880;28;20087;-81
2022/08/27 07:09:40;;;;;;;2.85;0.47;;;20.70;99.90;;;;;;5114405;28;20102;-81
2022/08/27 07:12:06;;;;;;;0.10;0.10;;;21.10;99.90;;;;;;5114319;28;20372;-82
2022/08/27 07:14:33;;;;;;;0.00;0.00;;;21.10;99.90;;;;;;5097203;28;20567;-82
2022/08/27 07:17:00;;;;;;;0.00;0.00;;;20.80;99.90;;;;;;5097541;28;20083;-82
2022/08/27 07:19:27;;;;;;;0.00;0.00;;;20.40;99.90;;;;;;5097598;28;20046;-82
2022/08/27 07:21:53;;;;;;;0.00;0.00;;;20.20;99.90;;;;;;5114630;28;20098;-82
2022/08/27 07:24:18;;;;;;;0.00;0.00;;;20.10;99.90;;;;;;5097645;28;20452;-83
2022/08/27 07:26:45;;;;;;;0.00;0.00;;;20.10;99.90;;;;;;5097277;28;20043;-83
2022/08/27 07:29:13;;;;;;;0.20;0.20;;;20.40;99.90;;;;;;5092718;28;20043;-83
2022/08/27 07:31:40;;;;;;;0.00;0.00;;;20.60;99.90;;;;;;5083167;28;20125;-83
2022/08/27 07:34:06;;;;;;;0.00;0.00;;;20.60;99.90;;;;;;5093814;28;20145;-83
2022/08/27 07:36:33;;;;;;;0.00;0.00;;;20.40;99.90;;;;;;5093853;28;20051;-82
2022/08/27 07:38:59;;;;;;;0.00;0.00;;;20.30;99.90;;;;;;5077412;28;20051;-82
2022/08/27 07:41:25;;;;;;;0.00;0.00;;;20.10;99.90;;;;;;5084959;28;20051;-82
2022/08/27 07:46:35;;;;;;;0.00;0.00;;;20.10;99.90;;;;;;5112295;28;20443;-82
2022/08/27 07:49:01;;;;;;;0.03;0.00;;;20.30;99.90;;;;;;5095260;28;20039;-82
2022/08/27 07:51:31;;;;;;;0.00;0.00;;;20.40;99.90;;;;;;5095114;28;20164;-82
2022/08/27 07:53:57;;;;;;;0.00;0.00;;;20.50;99.90;;;;;;5095502;28;20388;-83
2022/08/27 07:56:23;;;;;;;0.00;0.00;;;20.50;99.90;;;;;;5094182;28;20138;-82
2022/08/27 07:58:49;;;;;;;0.00;0.00;;;20.50;99.90;;;;;;5095175;28;20052;-82
2022/08/27 08:01:16;;;;;;;2.22;0.57;;;20.50;99.90;;;;;;5095018;28;20055;-82
2022/08/27 08:03:43;;;;;;;0.00;0.00;;;20.50;99.90;;;;;;5095051;28;20418;-82
2022/08/27 08:06:14;;;;;;;0.20;0.10;;;20.50;99.90;;;;;;5111366;28;20055;-80
2022/08/27 08:08:41;;;;;;;0.00;0.00;;;20.30;99.90;;;;;;5107765;28;20043;-80
2022/08/27 08:11:08;;;;;;;1.20;0.38;;;20.30;99.90;;;;;;5099072;28;20043;-80
2022/08/27 08:13:34;;;;;;;0.00;0.00;;;20.30;99.90;;;;;;5075152;28;20101;-81
2022/08/27 08:16:00;;;;;;;0.00;0.00;;;20.20;99.90;;;;;;5094353;28;20047;-80
2022/08/27 08:18:26;;;;;;;0.00;0.00;;;20.20;99.90;;;;;;5111674;28;20043;-80
2022/08/27 08:20:52;;;;;;;0.00;0.00;;;20.20;99.90;;;;;;5110409;28;20058;-80
2022/08/27 08:23:18;;;;;;;0.00;0.00;;;20.20;99.90;;;;;;5094836;28;20056;-81
2022/08/27 08:25:44;;;;;;;0.00;0.00;;;20.30;99.90;;;;;;5094192;28;20499;-81
2022/08/27 08:28:10;;;;;;;0.00;0.00;;;20.40;99.90;;;;;;5094031;28;20047;-81
2022/08/27 08:30:42;;;;;;;0.00;0.00;;;20.50;99.90;;;;;;5111515;28;20074;-81
2022/08/27 08:33:08;;;;;;;0.00;0.00;;;20.50;99.90;;;;;;5107034;28;20120;-80
2022/08/27 08:35:37;;;;;;;0.00;0.00;;;20.60;99.90;;;;;;5080613;28;20052;-80
2022/08/27 08:38:03;;;;;;;0.00;0.00;;;20.70;99.90;;;;;;5093032;28;20052;-80
2022/08/27 08:40:37;;;;;;;0.00;0.00;;;20.60;99.90;;;;;;5096081;28;20063;-80
2022/08/27 08:43:06;;;;;;;0.00;0.00;;;20.50;99.90;;;;;;5095686;28;20059;-80
2022/08/27 08:45:34;;;;;;;0.00;0.00;;;20.40;99.90;;;;;;5096544;28;20050;-80
2022/08/27 08:48:30;;;;;;;0.00;0.00;;;20.30;99.90;;;;;;5096130;28;20036;-80
2022/08/27 08:51:04;;;;;;;;;;;20.40;99.90;;;;;;5015452;28;20077;-80
2022/08/27 08:53:38;;;;;;;0.00;0.00;;;20.50;99.90;;;;;;5014903;28;20332;-80
2022/08/27 08:56:09;;;;;;;0.00;0.00;;;20.50;99.90;;;;;;4998361;28;20121;-80
2022/08/27 08:58:52;;;;;;;0.00;0.00;;;20.50;99.90;;;;;;4998286;28;20192;-80
2022/08/27 09:01:20;;;;;;;0.00;0.00;;;20.30;99.90;;;;;;4998645;28;20064;-80
2022/08/27 09:03:59;;;;;;;0.00;0.00;;;20.20;99.90;;;;;;4998886;28;20099;-79
2022/08/27 09:06:44;;;;;;;0.30;0.30;;;20.10;99.90;;;;;;4998979;28;20055;-80
2022/08/27 09:09:26;;;;;;;0.00;0.00;;;20.10;99.90;;;;;;4998446;28;20053;-81
2022/08/27 09:11:51;;;;;;;0.05;0.00;;;20.00;99.90;;;;;;5015652;28;20509;-81
2022/08/27 09:14:34;;;;;;;0.05;0.05;;;20.00;99.90;;;;;;4998410;28;20101;-81
2022/08/27 09:17:01;;;;;;;0.00;0.00;;;20.00;99.90;;;;;;4999020;28;20049;-81
2022/08/27 09:19:27;;;;;;;0.00;0.00;;;20.10;99.90;;;;;;5015217;28;20108;-81
2022/08/27 09:22:04;;;;;;;0.00;0.00;;;20.20;99.90;;;;;;4998540;28;20065;-81
2022/08/27 09:24:58;;;;;;;0.10;0.10;;;20.30;99.90;;;;;;5015037;28;20103;-81
2022/08/27 09:27:24;;;;;;;0.00;0.00;;;20.50;99.90;;;;;;5049181;28;20380;-80
2022/08/27 09:29:55;;;;;;;0.00;0.00;;;20.60;99.90;;;;;;5095634;28;20044;-80
2022/08/27 09:32:26;;;;;;;0.70;0.30;;;20.80;99.90;;;;;;5090116;28;20075;-80
2022/08/27 09:34:57;;;;;;;0.00;0.00;;;20.90;99.90;;;;;;5092043;28;20059;-79
2022/08/27 09:37:31;;;;;;;0.00;0.00;;;21.00;99.90;;;;;;5099302;28;20093;-80
2022/08/27 09:40:10;;;;;;;0.00;0.00;;;20.90;99.90;;;;;;5098848;28;20187;-80
2022/08/27 09:42:45;;;;;;;0.00;0.00;;;20.80;99.90;;;;;;5098261;28;20056;-81
2022/08/27 09:45:45;;;;;;;0.03;0.03;;;20.70;99.90;;;;;;5115666;28;20084;-80
2022/08/27 09:48:16;;;;;;;0.00;0.00;;;20.50;99.90;;;;;;5098773;28;20108;-81
2022/08/27 09:50:54;;;;;;;0.00;0.00;;;20.20;99.90;;;;;;5105971;28;20075;-81
2022/08/27 09:53:29;;;;;;;0.00;0.00;;;20.10;99.90;;;;;;5078411;28;20087;-81
2022/08/27 09:56:01;;;;;;;0.00;0.00;;;20.00;99.90;;;;;;5095707;28;20089;-81
2022/08/27 09:58:46;;;;;;;0.00;0.00;;;20.00;99.90;;;;;;5095007;28;20091;-80
2022/08/27 10:01:19;;;;;;;0.00;0.00;;;20.00;99.90;;;;;;5078413;28;20097;-81
2022/08/27 10:03:46;;;;;;;0.00;0.00;;;20.00;99.90;;;;;;5095297;28;20388;-81
2022/08/27 10:06:12;;;;;;;0.00;0.00;;;20.00;99.90;;;;;;5095459;28;20040;-81
2022/08/27 10:08:46;;;;;;;0.00;0.00;;;20.00;99.90;;;;;;5095750;28;20444;-81
2022/08/27 10:11:24;;;;;;;0.00;0.00;;;20.10;99.90;;;;;;5095380;28;20579;-81
2022/08/27 10:14:00;;;;;;;0.00;0.00;;;20.10;99.90;;;;;;5078562;28;20047;-82
2022/08/27 10:16:32;;;;;;;0.00;0.00;;;20.20;99.90;;;;;;5078216;28;20054;-81
2022/08/27 10:19:26;;;;;;;0.03;0.00;;;20.40;99.90;;;;;;5077696;28;20075;-81
2022/08/27 10:22:24;;;;;;;0.00;0.00;;;20.50;99.90;;;;;;5078112;28;20052;-81
2022/08/27 10:25:06;;;;;;;0.00;0.00;;;20.60;99.90;;;;;;5078037;28;20557;-81
2022/08/27 10:27:38;;;;;;;0.60;0.00;;;20.70;99.90;;;;;;5095068;28;20126;-81
2022/08/27 10:30:11;;;;;;;0.00;0.00;;;20.80;99.90;;;;;;5095061;28;20044;-81
2022/08/27 10:33:02;;;;;;;0.10;0.10;;;20.80;99.90;;;;;;5077942;28;20047;-81
2022/08/27 10:35:35;;;;;;;0.00;0.00;;;20.90;99.90;;;;;;5094401;28;20044;-81
2022/08/27 10:38:13;;;;;;;0.40;0.15;;;20.90;99.90;;;;;;5077965;28;20052;-81
2022/08/27 10:40:42;;;;;;;0.00;0.00;;;21.00;99.90;;;;;;5103111;28;20491;-81
2022/08/27 10:43:13;;;;;;;0.00;0.00;;;21.00;99.90;;;;;;5090172;28;20080;-80
2022/08/27 10:46:03;;;;;;;3.20;0.47;;;21.00;99.90;;;;;;5097942;28;20478;-80
2022/08/27 10:48:33;;;;;;;0.00;0.00;;;21.10;99.90;;;;;;5097895;28;20054;-81
2022/08/27 10:51:05;;;;;;;0.00;0.00;;;21.10;99.90;;;;;;5098033;28;20043;-82
2022/08/27 10:53:44;;;;;;;0.00;0.00;;;21.00;99.90;;;;;;5096913;28;20063;-80
2022/08/27 10:56:20;;;;;;;0.13;0.03;;;21.10;99.90;;;;;;5115034;28;20121;-81
2022/08/27 10:59:05;;;;;;;0.10;0.05;;;21.20;99.90;;;;;;5097485;28;20154;-80
2022/08/27 11:01:30;;;;;;;0.00;0.00;;;21.30;99.90;;;;;;5114306;28;20047;-81
2022/08/27 11:04:12;;;;;;;0.00;0.00;;;21.40;99.90;;;;;;5114370;28;20343;-81
2022/08/27 11:06:43;;;;;;;0.00;0.00;;;21.50;99.90;;;;;;5097842;28;20043;-80
2022/08/27 11:09:21;;;;;;;0.00;0.00;;;21.60;99.90;;;;;;5114546;28;20047;-80
2022/08/27 11:11:55;;;;;;;0.00;0.00;;;21.70;99.90;;;;;;5114514;28;20040;-80
2022/08/27 11:14:21;;;;;;;;;;;21.50;99.90;;;;;;5097809;28;20048;-81
2022/08/27 11:16:53;;;;;;;0.00;0.00;;;21.40;99.90;;;;;;5097038;28;19926;-81
2022/08/27 11:19:32;;;;;;;0.00;0.00;;;21.30;99.90;;;;;;5097468;28;20043;-81
2022/08/27 11:22:09;;;;;;;2.92;0.10;;;21.30;99.90;;;;;;5114289;28;20044;-81
2022/08/27 11:24:42;;;;;;;1.00;0.30;;;21.30;99.90;;;;;;5113878;28;20395;-81
2022/08/27 11:27:09;;;;;;;0.00;0.00;;;21.30;99.90;;;;;;5095186;28;20058;-81
2022/08/27 11:29:39;;;;;;;0.00;0.00;;;21.30;99.90;;;;;;5096377;28;20051;-81
2022/08/27 11:32:32;;;;;;;0.00;0.00;;;21.40;99.90;;;;;;5113594;28;20039;-81
2022/08/27 11:35:38;;;;;;;0.55;0.38;;;21.40;99.90;;;;;;5096377;28;20061;-81
2022/08/27 11:38:30;;;;;;;0.00;0.00;;;21.40;99.90;;;;;;5015861;28;20057;-82
2022/08/27 11:41:14;;;;;;;0.00;0.00;;;21.50;99.90;;;;;;4957519;28;20069;-81
2022/08/27 11:43:43;;;;;;;0.10;0.10;;;21.50;99.90;;;;;;4941625;28;20482;-80
2022/08/27 11:46:09;;;;;;;0.85;0.38;;;21.60;99.90;;;;;;4941492;28;20054;-81
2022/08/27 11:48:41;;;;;;;0.00;0.00;;;21.60;99.90;;;;;;4957558;28;20054;-81
2022/08/27 11:51:13;;;;;;;0.00;0.00;;;21.70;99.90;;;;;;4957357;28;20093;-80
2022/08/27 11:53:52;;;;;;;0.20;0.20;;;21.70;99.80;;;;;;4957204;28;20054;-80
2022/08/27 11:56:42;;;;;;;1.77;0.10;;;21.70;99.60;;;;;;4940846;28;20094;-82
2022/08/27 11:59:22;;;;;;;0.35;0.05;;;21.80;99.90;;;;;;4956997;28;20055;-80
2022/08/27 12:01:51;;;;;;;0.00;0.00;;;22.20;99.90;;;;;;4957138;28;20050;-81
2022/08/27 12:04:23;;;;;;;0.00;0.00;;;22.40;99.80;;;;;;4957020;28;20117;-81
2022/08/27 12:06:59;;;;;;;1.20;0.20;;;22.50;99.80;;;;;;4957679;28;20058;-82
2022/08/27 12:09:24;;;;;;;0.00;0.00;;;22.60;99.40;;;;;;4956917;28;20051;-82
2022/08/27 12:12:07;;;;;;;0.00;0.00;;;22.80;99.60;;;;;;4940939;28;20063;-81
2022/08/27 12:14:44;;;;;;;0.00;0.00;;;22.80;98.20;;;;;;4980887;28;20088;-81
2022/08/27 12:17:22;;;;;;;0.25;0.05;;;22.90;98.20;;;;;;5065228;28;20380;-81
2022/08/27 12:19:59;;;;;;;0.28;0.25;;;23.10;99.00;;;;;;5096222;28;20047;-81
2022/08/27 12:25:57;;;;;;;0.08;0.08;;;23.60;96.10;;;;;;5113098;28;20047;-80
2022/08/27 12:28:25;;;;;;;0.00;0.00;;;23.70;95.80;;;;;;5112938;28;20047;-82
2022/08/27 12:30:51;;;;;;;0.00;0.00;;;23.90;96.10;;;;;;5113255;28;20054;-81
2022/08/27 12:33:35;;;;;;;0.10;0.05;;;24.10;95.40;;;;;;5095481;28;20491;-80
2022/08/27 12:36:19;;;;;;;0.00;0.00;;;24.20;96.00;;;;;;5096956;28;20118;-80
2022/08/27 12:38:49;;;;;;;0.00;0.00;;;24.40;95.20;;;;;;5113146;28;20056;-80
2022/08/27 12:41:37;;;;;;;0.00;0.00;;;24.50;94.90;;;;;;5096015;28;20281;-80
2022/08/27 12:44:08;;;;;;;10.82;0.20;;;24.50;94.00;;;;;;5095962;28;20046;-80
2022/08/27 12:47:00;;;;;;;0.00;0.00;;;24.20;93.50;;;;;;5095901;28;20506;-80
2022/08/27 12:49:38;;;;;;;0.00;0.00;;;24.10;94.90;;;;;;5095844;28;20189;-80
2022/08/27 12:52:32;;;;;;;0.00;0.00;;;24.20;93.10;;;;;;5096150;28;20064;-81
2022/08/27 12:55:33;;;;;;;0.00;0.00;;;24.20;95.00;;;;;;4998564;28;20049;-81
2022/08/27 12:58:01;;;;;;;0.00;0.00;;;24.10;93.40;;;;;;4956591;28;20463;-81
2022/08/27 13:00:37;;;;;;;0.00;0.00;;;23.90;93.20;;;;;;4956295;28;20082;-81
2022/08/27 13:03:30;;;;;;;0.00;0.00;;;23.80;93.30;;;;;;4956843;28;20462;-81
2022/08/27 13:05:56;;;;;;;0.00;0.00;;;23.50;93.40;;;;;;4941093;28;20058;-81
2022/08/27 13:08:31;;;;;;;4.43;0.77;;;23.40;93.30;;;;;;4942712;28;20094;-81
2022/08/27 13:11:34;;;;;;;0.00;0.00;;;23.20;94.00;;;;;;4944422;28;20214;-81